sensor_id;sensor_type;location;lat;lon;timestamp;P1;durP1;ratioP1;P2;durP2;ratioP2
9924;SDS011;5001;51.674;7.868;2023-05-07T00:02:01;6.90;;;6.20;;
9924;SDS011;5001;51.674;7.868;2023-05-07T00:04:30;8.50;;;5.87;;
9924;SDS011;5001;51.674;7.868;2023-05-07T00:07:03;6.83;;;6.10;;
9924;SDS011;5001;51.674;7.868;2023-05-07T00:09:30;6.90;;;6.13;;
9924;SDS011;5001;51.674;7.868;2023-05-07T00:11:57;7.50;;;6.40;;
9924;SDS011;5001;51.674;7.868;2023-05-07T00:14:24;7.13;;;6.33;;
9924;SDS011;5001;51.674;7.868;2023-05-07T00:16:51;6.90;;;5.70;;
9924;SDS011;5001;51.674;7.868;2023-05-07T00:19:18;10.00;;;6.40;;
9924;SDS011;5001;51.674;7.868;2023-05-07T00:21:45;6.63;;;6.03;;
9924;SDS011;5001;51.674;7.868;2023-05-07T00:24:13;8.27;;;5.80;;
9924;SDS011;5001;51.674;7.868;2023-05-07T00:26:39;7.83;;;6.20;;
9924;SDS011;5001;51.674;7.868;2023-05-07T00:29:06;6.67;;;6.00;;
9924;SDS011;5001;51.674;7.868;2023-05-07T00:31:33;7.67;;;6.13;;
9924;SDS011;5001;51.674;7.868;2023-05-07T00:34:01;5.77;;;5.20;;
9924;SDS011;5001;51.674;7.868;2023-05-07T00:36:28;7.13;;;6.43;;
9924;SDS011;5001;51.674;7.868;2023-05-07T00:38:56;8.33;;;6.17;;
9924;SDS011;5001;51.674;7.868;2023-05-07T00:41:26;7.97;;;6.60;;
9924;SDS011;5001;51.674;7.868;2023-05-07T00:43:53;6.80;;;6.10;;
9924;SDS011;5001;51.674;7.868;2023-05-07T00:46:20;8.10;;;7.30;;
9924;SDS011;5001;51.674;7.868;2023-05-07T00:48:48;7.67;;;6.97;;
9924;SDS011;5001;51.674;7.868;2023-05-07T00:51:19;9.80;;;7.67;;
9924;SDS011;5001;51.674;7.868;2023-05-07T00:53:46;11.73;;;8.80;;
9924;SDS011;5001;51.674;7.868;2023-05-07T00:56:14;11.40;;;7.70;;
9924;SDS011;5001;51.674;7.868;2023-05-07T00:58:41;10.37;;;8.83;;
9924;SDS011;5001;51.674;7.868;2023-05-07T01:01:09;15.43;;;10.52;;
9924;SDS011;5001;51.674;7.868;2023-05-07T01:03:36;7.90;;;6.60;;
9924;SDS011;5001;51.674;7.868;2023-05-07T01:06:04;8.63;;;7.03;;
9924;SDS011;5001;51.674;7.868;2023-05-07T01:08:33;8.73;;;6.07;;
9924;SDS011;5001;51.674;7.868;2023-05-07T01:11:01;7.13;;;6.43;;
9924;SDS011;5001;51.674;7.868;2023-05-07T01:13:30;7.40;;;6.70;;
9924;SDS011;5001;51.674;7.868;2023-05-07T01:15:57;6.55;;;5.93;;
9924;SDS011;5001;51.674;7.868;2023-05-07T01:18:24;6.15;;;5.55;;
9924;SDS011;5001;51.674;7.868;2023-05-07T01:20:53;5.97;;;5.28;;
9924;SDS011;5001;51.674;7.868;2023-05-07T01:23:26;6.22;;;5.63;;
9924;SDS011;5001;51.674;7.868;2023-05-07T01:25:54;6.10;;;5.50;;
9924;SDS011;5001;51.674;7.868;2023-05-07T01:28:24;8.70;;;7.03;;
9924;SDS011;5001;51.674;7.868;2023-05-07T01:30:54;8.63;;;6.60;;
9924;SDS011;5001;51.674;7.868;2023-05-07T01:33:28;10.57;;;6.90;;
9924;SDS011;5001;51.674;7.868;2023-05-07T01:35:58;8.00;;;6.60;;
9924;SDS011;5001;51.674;7.868;2023-05-07T01:38:28;8.87;;;6.23;;
9924;SDS011;5001;51.674;7.868;2023-05-07T01:40:56;9.23;;;6.97;;
9924;SDS011;5001;51.674;7.868;2023-05-07T01:43:24;9.87;;;6.87;;
9924;SDS011;5001;51.674;7.868;2023-05-07T01:45:52;7.90;;;6.83;;
9924;SDS011;5001;51.674;7.868;2023-05-07T01:48:20;7.60;;;6.70;;
9924;SDS011;5001;51.674;7.868;2023-05-07T01:50:47;7.63;;;6.83;;
9924;SDS011;5001;51.674;7.868;2023-05-07T01:53:15;7.93;;;6.73;;
9924;SDS011;5001;51.674;7.868;2023-05-07T01:55:42;8.07;;;6.20;;
9924;SDS011;5001;51.674;7.868;2023-05-07T01:58:09;10.27;;;7.40;;
9924;SDS011;5001;51.674;7.868;2023-05-07T02:00:37;7.13;;;6.50;;
9924;SDS011;5001;51.674;7.868;2023-05-07T02:03:05;7.77;;;7.03;;
9924;SDS011;5001;51.674;7.868;2023-05-07T02:05:40;8.30;;;7.33;;
9924;SDS011;5001;51.674;7.868;2023-05-07T02:08:14;9.77;;;7.00;;
9924;SDS011;5001;51.674;7.868;2023-05-07T02:10:41;8.47;;;6.83;;
9924;SDS011;5001;51.674;7.868;2023-05-07T02:13:08;8.47;;;7.67;;
9924;SDS011;5001;51.674;7.868;2023-05-07T02:15:36;8.83;;;7.40;;
9924;SDS011;5001;51.674;7.868;2023-05-07T02:20:32;8.33;;;7.53;;
9924;SDS011;5001;51.674;7.868;2023-05-07T02:23:00;10.13;;;8.20;;
9924;SDS011;5001;51.674;7.868;2023-05-07T02:25:28;8.43;;;7.33;;
9924;SDS011;5001;51.674;7.868;2023-05-07T02:27:57;11.50;;;7.23;;
9924;SDS011;5001;51.674;7.868;2023-05-07T02:30:36;9.03;;;6.83;;
9924;SDS011;5001;51.674;7.868;2023-05-07T02:33:04;8.20;;;7.40;;
9924;SDS011;5001;51.674;7.868;2023-05-07T02:35:31;8.83;;;7.93;;
9924;SDS011;5001;51.674;7.868;2023-05-07T02:38:01;8.67;;;7.73;;
9924;SDS011;5001;51.674;7.868;2023-05-07T02:40:29;8.30;;;7.43;;
9924;SDS011;5001;51.674;7.868;2023-05-07T02:42:56;8.70;;;7.83;;
9924;SDS011;5001;51.674;7.868;2023-05-07T02:45:23;8.90;;;8.00;;
9924;SDS011;5001;51.674;7.868;2023-05-07T02:47:52;9.00;;;8.07;;
9924;SDS011;5001;51.674;7.868;2023-05-07T02:50:20;9.40;;;7.80;;
9924;SDS011;5001;51.674;7.868;2023-05-07T02:52:47;9.53;;;8.07;;
9924;SDS011;5001;51.674;7.868;2023-05-07T02:55:14;9.20;;;8.40;;
9924;SDS011;5001;51.674;7.868;2023-05-07T02:57:41;8.33;;;7.53;;
9924;SDS011;5001;51.674;7.868;2023-05-07T03:00:12;8.90;;;7.97;;
9924;SDS011;5001;51.674;7.868;2023-05-07T03:02:48;10.97;;;8.90;;
9924;SDS011;5001;51.674;7.868;2023-05-07T03:05:15;9.70;;;8.80;;
9924;SDS011;5001;51.674;7.868;2023-05-07T03:07:42;11.20;;;8.60;;
9924;SDS011;5001;51.674;7.868;2023-05-07T03:10:12;9.07;;;8.17;;
9924;SDS011;5001;51.674;7.868;2023-05-07T03:12:40;10.13;;;9.10;;
9924;SDS011;5001;51.674;7.868;2023-05-07T03:15:08;10.27;;;9.27;;
9924;SDS011;5001;51.674;7.868;2023-05-07T03:17:36;9.90;;;8.90;;
9924;SDS011;5001;51.674;7.868;2023-05-07T03:20:06;10.50;;;9.30;;
9924;SDS011;5001;51.674;7.868;2023-05-07T03:22:34;10.53;;;9.10;;
9924;SDS011;5001;51.674;7.868;2023-05-07T03:25:01;12.73;;;9.67;;
9924;SDS011;5001;51.674;7.868;2023-05-07T03:27:28;11.43;;;10.13;;
9924;SDS011;5001;51.674;7.868;2023-05-07T03:29:55;12.43;;;9.83;;
9924;SDS011;5001;51.674;7.868;2023-05-07T03:32:23;11.47;;;10.37;;
9924;SDS011;5001;51.674;7.868;2023-05-07T03:34:52;11.93;;;10.67;;
9924;SDS011;5001;51.674;7.868;2023-05-07T03:37:19;11.43;;;10.33;;
9924;SDS011;5001;51.674;7.868;2023-05-07T03:39:48;12.23;;;9.60;;
9924;SDS011;5001;51.674;7.868;2023-05-07T03:42:16;11.90;;;10.40;;
9924;SDS011;5001;51.674;7.868;2023-05-07T03:44:44;12.10;;;10.83;;
9924;SDS011;5001;51.674;7.868;2023-05-07T03:47:12;13.33;;;10.87;;
9924;SDS011;5001;51.674;7.868;2023-05-07T03:49:39;14.63;;;11.27;;
9924;SDS011;5001;51.674;7.868;2023-05-07T03:52:07;16.23;;;11.57;;
9924;SDS011;5001;51.674;7.868;2023-05-07T03:54:35;13.23;;;11.90;;
9924;SDS011;5001;51.674;7.868;2023-05-07T03:57:02;15.07;;;12.30;;
9924;SDS011;5001;51.674;7.868;2023-05-07T03:59:30;13.47;;;12.07;;
9924;SDS011;5001;51.674;7.868;2023-05-07T04:01:57;14.73;;;13.17;;
9924;SDS011;5001;51.674;7.868;2023-05-07T04:04:27;22.50;;;13.90;;
9924;SDS011;5001;51.674;7.868;2023-05-07T04:07:00;15.00;;;13.50;;
9924;SDS011;5001;51.674;7.868;2023-05-07T04:09:28;16.30;;;13.60;;
9924;SDS011;5001;51.674;7.868;2023-05-07T04:11:56;16.73;;;14.20;;
9924;SDS011;5001;51.674;7.868;2023-05-07T04:14:23;15.73;;;13.30;;
9924;SDS011;5001;51.674;7.868;2023-05-07T04:16:51;17.67;;;14.83;;
9924;SDS011;5001;51.674;7.868;2023-05-07T04:19:19;20.10;;;15.87;;
9924;SDS011;5001;51.674;7.868;2023-05-07T04:21:49;18.20;;;15.67;;
9924;SDS011;5001;51.674;7.868;2023-05-07T04:24:16;17.60;;;15.80;;
9924;SDS011;5001;51.674;7.868;2023-05-07T04:26:44;13.80;;;12.40;;
9924;SDS011;5001;51.674;7.868;2023-05-07T04:29:12;12.77;;;10.03;;
9924;SDS011;5001;51.674;7.868;2023-05-07T04:31:40;16.23;;;13.87;;
9924;SDS011;5001;51.674;7.868;2023-05-07T04:34:08;15.90;;;14.30;;
9924;SDS011;5001;51.674;7.868;2023-05-07T04:36:35;16.37;;;14.47;;
9924;SDS011;5001;51.674;7.868;2023-05-07T04:39:08;13.33;;;11.20;;
9924;SDS011;5001;51.674;7.868;2023-05-07T04:41:39;15.95;;;14.25;;
9924;SDS011;5001;51.674;7.868;2023-05-07T04:44:06;15.57;;;13.83;;
9924;SDS011;5001;51.674;7.868;2023-05-07T04:46:35;17.63;;;13.90;;
9924;SDS011;5001;51.674;7.868;2023-05-07T04:49:02;14.20;;;12.90;;
9924;SDS011;5001;51.674;7.868;2023-05-07T04:51:29;16.20;;;14.47;;
9924;SDS011;5001;51.674;7.868;2023-05-07T04:53:59;20.53;;;16.80;;
9924;SDS011;5001;51.674;7.868;2023-05-07T04:56:28;19.47;;;17.33;;
9924;SDS011;5001;51.674;7.868;2023-05-07T04:59:00;23.77;;;17.80;;
9924;SDS011;5001;51.674;7.868;2023-05-07T05:01:27;18.97;;;17.03;;
9924;SDS011;5001;51.674;7.868;2023-05-07T05:03:55;19.97;;;17.93;;
9924;SDS011;5001;51.674;7.868;2023-05-07T05:06:22;21.00;;;17.10;;
9924;SDS011;5001;51.674;7.868;2023-05-07T05:08:50;18.93;;;16.90;;
9924;SDS011;5001;51.674;7.868;2023-05-07T05:11:17;22.90;;;17.17;;
9924;SDS011;5001;51.674;7.868;2023-05-07T05:13:45;19.87;;;17.73;;
9924;SDS011;5001;51.674;7.868;2023-05-07T05:16:18;18.70;;;16.73;;
9924;SDS011;5001;51.674;7.868;2023-05-07T05:18:46;24.13;;;17.87;;
9924;SDS011;5001;51.674;7.868;2023-05-07T05:21:16;21.63;;;16.92;;
9924;SDS011;5001;51.674;7.868;2023-05-07T05:23:47;20.53;;;17.57;;
9924;SDS011;5001;51.674;7.868;2023-05-07T05:26:17;18.90;;;16.50;;
9924;SDS011;5001;51.674;7.868;2023-05-07T05:28:45;19.23;;;15.57;;
9924;SDS011;5001;51.674;7.868;2023-05-07T05:31:12;18.33;;;16.42;;
9924;SDS011;5001;51.674;7.868;2023-05-07T05:33:40;16.33;;;14.57;;
9924;SDS011;5001;51.674;7.868;2023-05-07T05:36:10;20.05;;;15.90;;
9924;SDS011;5001;51.674;7.868;2023-05-07T05:38:40;17.83;;;16.02;;
9924;SDS011;5001;51.674;7.868;2023-05-07T05:41:08;18.92;;;16.90;;
9924;SDS011;5001;51.674;7.868;2023-05-07T05:43:36;18.33;;;15.55;;
9924;SDS011;5001;51.674;7.868;2023-05-07T05:46:03;19.38;;;17.38;;
9924;SDS011;5001;51.674;7.868;2023-05-07T05:48:31;16.10;;;14.60;;
9924;SDS011;5001;51.674;7.868;2023-05-07T05:51:00;20.80;;;17.83;;
9924;SDS011;5001;51.674;7.868;2023-05-07T05:53:27;17.63;;;15.77;;
9924;SDS011;5001;51.674;7.868;2023-05-07T05:55:55;17.33;;;15.50;;
9924;SDS011;5001;51.674;7.868;2023-05-07T05:58:22;21.52;;;17.15;;
9924;SDS011;5001;51.674;7.868;2023-05-07T06:00:55;22.63;;;17.58;;
9924;SDS011;5001;51.674;7.868;2023-05-07T06:03:24;20.75;;;18.58;;
9924;SDS011;5001;51.674;7.868;2023-05-07T06:05:54;18.75;;;16.65;;
9924;SDS011;5001;51.674;7.868;2023-05-07T06:08:21;17.85;;;16.02;;
9924;SDS011;5001;51.674;7.868;2023-05-07T06:10:48;20.08;;;16.88;;
9924;SDS011;5001;51.674;7.868;2023-05-07T06:13:16;18.35;;;16.27;;
9924;SDS011;5001;51.674;7.868;2023-05-07T06:15:43;18.00;;;15.90;;
9924;SDS011;5001;51.674;7.868;2023-05-07T06:18:12;16.85;;;15.15;;
9924;SDS011;5001;51.674;7.868;2023-05-07T06:20:40;18.98;;;16.70;;
9924;SDS011;5001;51.674;7.868;2023-05-07T06:23:13;20.27;;;16.85;;
9924;SDS011;5001;51.674;7.868;2023-05-07T06:25:47;19.95;;;17.80;;
9924;SDS011;5001;51.674;7.868;2023-05-07T06:28:17;20.30;;;17.73;;
9924;SDS011;5001;51.674;7.868;2023-05-07T06:30:45;25.08;;;19.27;;
9924;SDS011;5001;51.674;7.868;2023-05-07T06:33:16;21.23;;;17.38;;
9924;SDS011;5001;51.674;7.868;2023-05-07T06:35:43;24.92;;;19.60;;
9924;SDS011;5001;51.674;7.868;2023-05-07T06:38:10;21.45;;;19.30;;
9924;SDS011;5001;51.674;7.868;2023-05-07T06:40:39;23.90;;;19.25;;
9924;SDS011;5001;51.674;7.868;2023-05-07T06:43:06;22.02;;;18.65;;
9924;SDS011;5001;51.674;7.868;2023-05-07T06:45:54;19.92;;;17.08;;
9924;SDS011;5001;51.674;7.868;2023-05-07T06:48:21;19.55;;;17.58;;
9924;SDS011;5001;51.674;7.868;2023-05-07T06:50:55;24.80;;;18.90;;
9924;SDS011;5001;51.674;7.868;2023-05-07T06:53:24;20.88;;;18.15;;
9924;SDS011;5001;51.674;7.868;2023-05-07T06:55:54;20.00;;;16.30;;
9924;SDS011;5001;51.674;7.868;2023-05-07T06:58:21;19.48;;;17.30;;
9924;SDS011;5001;51.674;7.868;2023-05-07T07:00:48;18.02;;;15.45;;
9924;SDS011;5001;51.674;7.868;2023-05-07T07:03:16;19.35;;;17.27;;
9924;SDS011;5001;51.674;7.868;2023-05-07T07:05:44;21.50;;;17.17;;
9924;SDS011;5001;51.674;7.868;2023-05-07T07:08:12;21.20;;;17.88;;
9924;SDS011;5001;51.674;7.868;2023-05-07T07:10:39;23.98;;;17.55;;
9924;SDS011;5001;51.674;7.868;2023-05-07T07:13:06;18.30;;;16.30;;
9924;SDS011;5001;51.674;7.868;2023-05-07T07:15:34;19.77;;;17.75;;
9924;SDS011;5001;51.674;7.868;2023-05-07T07:18:01;23.48;;;17.75;;
9924;SDS011;5001;51.674;7.868;2023-05-07T07:20:28;19.20;;;17.08;;
9924;SDS011;5001;51.674;7.868;2023-05-07T07:22:55;19.58;;;17.48;;
9924;SDS011;5001;51.674;7.868;2023-05-07T07:25:22;21.20;;;17.35;;
9924;SDS011;5001;51.674;7.868;2023-05-07T07:27:50;18.13;;;16.23;;
9924;SDS011;5001;51.674;7.868;2023-05-07T07:30:18;20.08;;;16.90;;
9924;SDS011;5001;51.674;7.868;2023-05-07T07:32:47;20.17;;;17.48;;
9924;SDS011;5001;51.674;7.868;2023-05-07T07:35:14;19.88;;;17.73;;
9924;SDS011;5001;51.674;7.868;2023-05-07T07:37:43;18.95;;;16.98;;
9924;SDS011;5001;51.674;7.868;2023-05-07T07:40:12;21.27;;;18.55;;
9924;SDS011;5001;51.674;7.868;2023-05-07T07:42:40;19.17;;;17.25;;
9924;SDS011;5001;51.674;7.868;2023-05-07T07:45:07;20.70;;;16.95;;
9924;SDS011;5001;51.674;7.868;2023-05-07T07:47:39;19.17;;;17.13;;
9924;SDS011;5001;51.674;7.868;2023-05-07T07:50:07;19.33;;;17.25;;
9924;SDS011;5001;51.674;7.868;2023-05-07T07:52:35;19.75;;;17.65;;
9924;SDS011;5001;51.674;7.868;2023-05-07T07:55:03;20.30;;;18.10;;
9924;SDS011;5001;51.674;7.868;2023-05-07T07:57:31;19.30;;;16.65;;
9924;SDS011;5001;51.674;7.868;2023-05-07T07:59:59;19.70;;;17.35;;
9924;SDS011;5001;51.674;7.868;2023-05-07T08:02:30;20.65;;;18.50;;
9924;SDS011;5001;51.674;7.868;2023-05-07T08:04:57;23.33;;;17.98;;
9924;SDS011;5001;51.674;7.868;2023-05-07T08:07:24;20.77;;;17.67;;
9924;SDS011;5001;51.674;7.868;2023-05-07T08:09:52;18.60;;;16.60;;
9924;SDS011;5001;51.674;7.868;2023-05-07T08:12:21;19.98;;;17.38;;
9924;SDS011;5001;51.674;7.868;2023-05-07T08:14:49;21.48;;;18.08;;
9924;SDS011;5001;51.674;7.868;2023-05-07T08:17:17;19.00;;;17.00;;
9924;SDS011;5001;51.674;7.868;2023-05-07T08:19:45;18.92;;;16.50;;
9924;SDS011;5001;51.674;7.868;2023-05-07T08:22:13;18.20;;;16.27;;
9924;SDS011;5001;51.674;7.868;2023-05-07T08:24:40;18.65;;;16.65;;
9924;SDS011;5001;51.674;7.868;2023-05-07T08:27:08;19.77;;;16.13;;
9924;SDS011;5001;51.674;7.868;2023-05-07T08:29:36;18.63;;;16.63;;
9924;SDS011;5001;51.674;7.868;2023-05-07T08:32:03;20.00;;;16.23;;
9924;SDS011;5001;51.674;7.868;2023-05-07T08:34:31;18.88;;;16.83;;
9924;SDS011;5001;51.674;7.868;2023-05-07T08:37:01;19.27;;;15.88;;
9924;SDS011;5001;51.674;7.868;2023-05-07T08:39:30;18.52;;;16.42;;
9924;SDS011;5001;51.674;7.868;2023-05-07T08:41:58;18.33;;;16.27;;
9924;SDS011;5001;51.674;7.868;2023-05-07T08:44:29;20.48;;;16.73;;
9924;SDS011;5001;51.674;7.868;2023-05-07T08:47:01;16.80;;;15.10;;
9924;SDS011;5001;51.674;7.868;2023-05-07T08:49:33;17.63;;;15.80;;
9924;SDS011;5001;51.674;7.868;2023-05-07T08:52:01;17.63;;;15.85;;
9924;SDS011;5001;51.674;7.868;2023-05-07T08:54:28;18.52;;;16.48;;
9924;SDS011;5001;51.674;7.868;2023-05-07T08:56:57;15.95;;;14.45;;
9924;SDS011;5001;51.674;7.868;2023-05-07T08:59:25;15.15;;;13.68;;
9924;SDS011;5001;51.674;7.868;2023-05-07T09:01:53;15.82;;;14.23;;
9924;SDS011;5001;51.674;7.868;2023-05-07T09:04:20;16.27;;;13.95;;
9924;SDS011;5001;51.674;7.868;2023-05-07T09:06:47;15.52;;;13.88;;
9924;SDS011;5001;51.674;7.868;2023-05-07T09:09:14;16.45;;;14.75;;
9924;SDS011;5001;51.674;7.868;2023-05-07T09:11:46;16.80;;;14.75;;
9924;SDS011;5001;51.674;7.868;2023-05-07T09:14:17;14.77;;;13.27;;
9924;SDS011;5001;51.674;7.868;2023-05-07T09:16:56;16.73;;;14.95;;
9924;SDS011;5001;51.674;7.868;2023-05-07T09:19:23;18.05;;;15.13;;
9924;SDS011;5001;51.674;7.868;2023-05-07T09:21:59;16.70;;;14.35;;
9924;SDS011;5001;51.674;7.868;2023-05-07T09:24:49;14.57;;;13.07;;
9924;SDS011;5001;51.674;7.868;2023-05-07T09:27:21;16.67;;;14.98;;
9924;SDS011;5001;51.674;7.868;2023-05-07T09:29:48;15.07;;;13.57;;
9924;SDS011;5001;51.674;7.868;2023-05-07T09:32:16;17.75;;;14.48;;
9924;SDS011;5001;51.674;7.868;2023-05-07T09:34:43;15.68;;;14.07;;
9924;SDS011;5001;51.674;7.868;2023-05-07T09:37:12;14.23;;;12.82;;
9924;SDS011;5001;51.674;7.868;2023-05-07T09:42:13;14.75;;;13.25;;
9924;SDS011;5001;51.674;7.868;2023-05-07T09:44:44;17.10;;;15.30;;
9924;SDS011;5001;51.674;7.868;2023-05-07T09:47:19;15.55;;;13.40;;
9924;SDS011;5001;51.674;7.868;2023-05-07T09:49:50;18.38;;;14.45;;
9924;SDS011;5001;51.674;7.868;2023-05-07T09:52:23;17.15;;;14.52;;
9924;SDS011;5001;51.674;7.868;2023-05-07T09:54:53;17.33;;;15.23;;
9924;SDS011;5001;51.674;7.868;2023-05-07T09:57:25;18.33;;;14.38;;
9924;SDS011;5001;51.674;7.868;2023-05-07T09:59:58;15.63;;;13.52;;
9924;SDS011;5001;51.674;7.868;2023-05-07T10:02:32;16.35;;;13.45;;
9924;SDS011;5001;51.674;7.868;2023-05-07T10:05:03;15.85;;;14.18;;
9924;SDS011;5001;51.674;7.868;2023-05-07T10:07:33;16.45;;;13.80;;
9924;SDS011;5001;51.674;7.868;2023-05-07T10:10:05;14.57;;;13.07;;
9924;SDS011;5001;51.674;7.868;2023-05-07T10:12:37;14.02;;;12.60;;
9924;SDS011;5001;51.674;7.868;2023-05-07T10:15:13;15.98;;;13.82;;
9924;SDS011;5001;51.674;7.868;2023-05-07T10:17:45;14.27;;;12.88;;
9924;SDS011;5001;51.674;7.868;2023-05-07T10:20:14;14.90;;;13.40;;
9924;SDS011;5001;51.674;7.868;2023-05-07T10:22:45;14.73;;;13.23;;
9924;SDS011;5001;51.674;7.868;2023-05-07T10:25:23;14.18;;;12.50;;
9924;SDS011;5001;51.674;7.868;2023-05-07T10:27:58;14.70;;;13.25;;
9924;SDS011;5001;51.674;7.868;2023-05-07T10:30:40;15.95;;;11.55;;
9924;SDS011;5001;51.674;7.868;2023-05-07T10:33:40;13.55;;;12.15;;
9924;SDS011;5001;51.674;7.868;2023-05-07T10:36:09;14.60;;;13.20;;
9924;SDS011;5001;51.674;7.868;2023-05-07T10:38:37;14.82;;;11.60;;
9924;SDS011;5001;51.674;7.868;2023-05-07T10:41:07;13.40;;;12.00;;
9924;SDS011;5001;51.674;7.868;2023-05-07T10:43:38;15.05;;;12.38;;
9924;SDS011;5001;51.674;7.868;2023-05-07T10:46:10;13.60;;;12.30;;
9924;SDS011;5001;51.674;7.868;2023-05-07T10:49:06;13.48;;;12.18;;
9924;SDS011;5001;51.674;7.868;2023-05-07T10:51:47;12.40;;;11.07;;
9924;SDS011;5001;51.674;7.868;2023-05-07T10:57:44;12.13;;;10.80;;
9924;SDS011;5001;51.674;7.868;2023-05-07T11:03:06;12.90;;;11.60;;
9924;SDS011;5001;51.674;7.868;2023-05-07T11:05:43;11.98;;;10.38;;
9924;SDS011;5001;51.674;7.868;2023-05-07T11:08:22;13.65;;;10.57;;
9924;SDS011;5001;51.674;7.868;2023-05-07T11:11:01;12.40;;;11.00;;
9924;SDS011;5001;51.674;7.868;2023-05-07T11:13:41;10.68;;;8.80;;
9924;SDS011;5001;51.674;7.868;2023-05-07T11:18:50;10.73;;;8.85;;
9924;SDS011;5001;51.674;7.868;2023-05-07T11:21:39;8.43;;;7.60;;
9924;SDS011;5001;51.674;7.868;2023-05-07T11:24:38;8.60;;;7.40;;
9924;SDS011;5001;51.674;7.868;2023-05-07T11:27:10;11.60;;;8.40;;
9924;SDS011;5001;51.674;7.868;2023-05-07T11:29:38;10.05;;;9.05;;
9924;SDS011;5001;51.674;7.868;2023-05-07T11:32:09;10.57;;;9.48;;
9924;SDS011;5001;51.674;7.868;2023-05-07T11:34:42;9.38;;;8.48;;
9924;SDS011;5001;51.674;7.868;2023-05-07T11:37:11;10.98;;;9.65;;
9924;SDS011;5001;51.674;7.868;2023-05-07T11:40:05;8.88;;;7.97;;
9924;SDS011;5001;51.674;7.868;2023-05-07T11:42:36;10.20;;;9.10;;
9924;SDS011;5001;51.674;7.868;2023-05-07T11:45:06;11.10;;;10.00;;
9924;SDS011;5001;51.674;7.868;2023-05-07T11:47:36;10.07;;;8.82;;
9924;SDS011;5001;51.674;7.868;2023-05-07T11:50:08;12.70;;;8.95;;
9924;SDS011;5001;51.674;7.868;2023-05-07T11:52:38;10.35;;;9.32;;
9924;SDS011;5001;51.674;7.868;2023-05-07T11:55:06;6.82;;;6.13;;
9924;SDS011;5001;51.674;7.868;2023-05-07T11:57:37;9.75;;;7.97;;
9924;SDS011;5001;51.674;7.868;2023-05-07T12:00:04;8.25;;;7.45;;
9924;SDS011;5001;51.674;7.868;2023-05-07T12:02:41;10.10;;;7.53;;
9924;SDS011;5001;51.674;7.868;2023-05-07T12:05:11;10.60;;;8.10;;
9924;SDS011;5001;51.674;7.868;2023-05-07T12:07:41;8.35;;;7.50;;
9924;SDS011;5001;51.674;7.868;2023-05-07T12:10:12;10.48;;;9.15;;
9924;SDS011;5001;51.674;7.868;2023-05-07T12:12:40;9.23;;;8.27;;
9924;SDS011;5001;51.674;7.868;2023-05-07T12:15:10;9.40;;;8.45;;
9924;SDS011;5001;51.674;7.868;2023-05-07T12:17:38;10.07;;;8.85;;
9924;SDS011;5001;51.674;7.868;2023-05-07T12:20:07;9.23;;;8.13;;
9924;SDS011;5001;51.674;7.868;2023-05-07T12:22:35;9.90;;;8.57;;
9924;SDS011;5001;51.674;7.868;2023-05-07T12:25:03;9.93;;;8.35;;
9924;SDS011;5001;51.674;7.868;2023-05-07T12:27:31;9.32;;;8.40;;
9924;SDS011;5001;51.674;7.868;2023-05-07T12:29:59;9.10;;;8.20;;
9924;SDS011;5001;51.674;7.868;2023-05-07T12:32:26;8.93;;;8.00;;
9924;SDS011;5001;51.674;7.868;2023-05-07T12:34:53;10.10;;;9.10;;
9924;SDS011;5001;51.674;7.868;2023-05-07T12:37:24;11.30;;;9.55;;
9924;SDS011;5001;51.674;7.868;2023-05-07T12:40:09;9.57;;;8.68;;
9924;SDS011;5001;51.674;7.868;2023-05-07T12:42:38;10.32;;;9.00;;
9924;SDS011;5001;51.674;7.868;2023-05-07T12:47:37;9.73;;;8.77;;
9924;SDS011;5001;51.674;7.868;2023-05-07T12:50:07;10.13;;;7.50;;
9924;SDS011;5001;51.674;7.868;2023-05-07T12:52:34;9.18;;;7.93;;
9924;SDS011;5001;51.674;7.868;2023-05-07T12:55:05;8.82;;;7.97;;
9924;SDS011;5001;51.674;7.868;2023-05-07T12:57:41;9.05;;;8.15;;
9924;SDS011;5001;51.674;7.868;2023-05-07T13:00:09;10.27;;;8.50;;
9924;SDS011;5001;51.674;7.868;2023-05-07T13:02:38;8.75;;;7.80;;
9924;SDS011;5001;51.674;7.868;2023-05-07T13:05:06;7.85;;;6.55;;
9924;SDS011;5001;51.674;7.868;2023-05-07T13:07:35;9.55;;;7.68;;
9924;SDS011;5001;51.674;7.868;2023-05-07T13:10:03;9.85;;;8.07;;
9924;SDS011;5001;51.674;7.868;2023-05-07T13:12:33;8.77;;;7.32;;
9924;SDS011;5001;51.674;7.868;2023-05-07T13:15:01;8.50;;;7.68;;
9924;SDS011;5001;51.674;7.868;2023-05-07T13:17:28;8.38;;;7.57;;
9924;SDS011;5001;51.674;7.868;2023-05-07T13:19:57;9.48;;;7.93;;
9924;SDS011;5001;51.674;7.868;2023-05-07T13:22:25;8.35;;;6.40;;
9924;SDS011;5001;51.674;7.868;2023-05-07T13:24:52;7.45;;;6.75;;
9924;SDS011;5001;51.674;7.868;2023-05-07T13:27:19;8.85;;;7.05;;
9924;SDS011;5001;51.674;7.868;2023-05-07T13:29:48;7.70;;;6.90;;
9924;SDS011;5001;51.674;7.868;2023-05-07T13:32:15;8.50;;;7.13;;
9924;SDS011;5001;51.674;7.868;2023-05-07T13:34:42;8.15;;;6.95;;
9924;SDS011;5001;51.674;7.868;2023-05-07T13:37:09;7.60;;;6.90;;
9924;SDS011;5001;51.674;7.868;2023-05-07T13:39:37;8.02;;;6.95;;
9924;SDS011;5001;51.674;7.868;2023-05-07T13:42:05;7.95;;;6.93;;
9924;SDS011;5001;51.674;7.868;2023-05-07T13:44:32;8.70;;;7.22;;
9924;SDS011;5001;51.674;7.868;2023-05-07T13:47:01;8.73;;;6.88;;
9924;SDS011;5001;51.674;7.868;2023-05-07T13:49:28;7.85;;;7.07;;
9924;SDS011;5001;51.674;7.868;2023-05-07T13:51:56;7.32;;;6.57;;
9924;SDS011;5001;51.674;7.868;2023-05-07T13:54:23;8.10;;;7.20;;
9924;SDS011;5001;51.674;7.868;2023-05-07T13:56:50;7.57;;;6.78;;
9924;SDS011;5001;51.674;7.868;2023-05-07T13:59:17;8.10;;;7.30;;
9924;SDS011;5001;51.674;7.868;2023-05-07T14:01:44;7.60;;;6.85;;
9924;SDS011;5001;51.674;7.868;2023-05-07T14:04:11;8.40;;;6.97;;
9924;SDS011;5001;51.674;7.868;2023-05-07T14:06:38;15.38;;;7.32;;
9924;SDS011;5001;51.674;7.868;2023-05-07T14:09:05;7.28;;;6.57;;
9924;SDS011;5001;51.674;7.868;2023-05-07T14:11:33;7.43;;;6.70;;
9924;SDS011;5001;51.674;7.868;2023-05-07T14:14:01;7.43;;;6.70;;
9924;SDS011;5001;51.674;7.868;2023-05-07T14:16:28;8.95;;;6.75;;
9924;SDS011;5001;51.674;7.868;2023-05-07T14:18:56;7.68;;;6.95;;
9924;SDS011;5001;51.674;7.868;2023-05-07T14:21:24;6.80;;;6.15;;
9924;SDS011;5001;51.674;7.868;2023-05-07T14:23:51;7.97;;;7.18;;
9924;SDS011;5001;51.674;7.868;2023-05-07T14:26:19;8.30;;;7.50;;
9924;SDS011;5001;51.674;7.868;2023-05-07T14:28:47;9.68;;;7.25;;
9924;SDS011;5001;51.674;7.868;2023-05-07T14:31:14;8.45;;;7.30;;
9924;SDS011;5001;51.674;7.868;2023-05-07T14:33:41;8.93;;;7.43;;
9924;SDS011;5001;51.674;7.868;2023-05-07T14:36:08;8.30;;;7.50;;
9924;SDS011;5001;51.674;7.868;2023-05-07T14:38:35;8.20;;;6.78;;
9924;SDS011;5001;51.674;7.868;2023-05-07T14:41:02;8.20;;;6.22;;
9924;SDS011;5001;51.674;7.868;2023-05-07T14:43:29;7.85;;;7.05;;
9924;SDS011;5001;51.674;7.868;2023-05-07T14:45:57;8.38;;;7.65;;
9924;SDS011;5001;51.674;7.868;2023-05-07T14:48:24;10.95;;;6.72;;
9924;SDS011;5001;51.674;7.868;2023-05-07T14:50:52;8.75;;;7.85;;
9924;SDS011;5001;51.674;7.868;2023-05-07T14:53:19;10.38;;;7.13;;
9924;SDS011;5001;51.674;7.868;2023-05-07T14:55:47;8.95;;;6.10;;
9924;SDS011;5001;51.674;7.868;2023-05-07T14:58:14;9.23;;;7.05;;
9924;SDS011;5001;51.674;7.868;2023-05-07T15:00:42;11.15;;;6.63;;
9924;SDS011;5001;51.674;7.868;2023-05-07T15:03:09;6.25;;;5.65;;
9924;SDS011;5001;51.674;7.868;2023-05-07T15:05:40;6.68;;;5.97;;
9924;SDS011;5001;51.674;7.868;2023-05-07T15:08:08;6.65;;;5.95;;
9924;SDS011;5001;51.674;7.868;2023-05-07T15:10:36;6.57;;;5.93;;
9924;SDS011;5001;51.674;7.868;2023-05-07T15:13:08;7.75;;;4.88;;
9924;SDS011;5001;51.674;7.868;2023-05-07T15:15:41;7.65;;;4.65;;
9924;SDS011;5001;51.674;7.868;2023-05-07T15:18:10;6.07;;;4.30;;
9924;SDS011;5001;51.674;7.868;2023-05-07T15:20:37;6.95;;;4.32;;
9924;SDS011;5001;51.674;7.868;2023-05-07T15:23:04;4.13;;;3.53;;
9924;SDS011;5001;51.674;7.868;2023-05-07T15:25:36;4.20;;;3.80;;
9924;SDS011;5001;51.674;7.868;2023-05-07T15:28:03;6.22;;;4.55;;
9924;SDS011;5001;51.674;7.868;2023-05-07T15:30:31;6.55;;;5.00;;